Time;durP1;ratioP1;P1;durP2;ratioP2;P2;SDS_P1;SDS_P2;PMS_P1;PMS_P2;Temp;Humidity;BMP_temperature;BMP_pressure;BME280_temperature;BME280_humidity;BME280_pressure;Samples;Min_cycle;Max_cycle;Signal;HPM_P1;HPM_P2
2022/06/22 00:02:08;;;;;;;7.00;2.60;;;;;;;12.48;72.34;100368.53;5045418;28;20028;-71
2022/06/22 00:04:43;;;;;;;7.57;2.60;;;;;;;12.43;72.19;100367.72;5045028;28;20033;-73
2022/06/22 00:07:13;;;;;;;6.20;2.30;;;;;;;12.45;71.89;100371.22;5039610;28;20036;-73
2022/06/22 00:09:41;;;;;;;6.28;2.30;;;;;;;12.42;72.45;100366.00;5044281;28;20105;-73
2022/06/22 00:12:19;;;;;;;7.95;2.95;;;;;;;12.43;73.34;100367.72;5044605;28;20041;-73
2022/06/22 00:14:47;;;;;;;4.68;2.50;;;;;;;12.42;72.25;100373.94;5040920;28;20048;-74
2022/06/22 00:17:24;;;;;;;5.82;2.50;;;;;;;12.48;72.30;100371.19;5043578;28;20127;-74
2022/06/22 00:19:50;;;;;;;10.25;2.40;;;;;;;12.48;71.76;100361.47;5038838;28;20037;-73
2022/06/22 00:22:25;;;;;;;6.82;2.47;;;;;;;12.40;73.06;100359.84;5044095;28;20085;-73
2022/06/22 00:25:19;;;;;;;4.55;2.08;;;;;;;12.36;72.73;100359.00;5045193;28;20047;-73
2022/06/22 00:27:45;;;;;;;4.18;2.22;;;;;;;12.42;71.80;100358.06;5045316;28;20044;-73
2022/06/22 00:30:23;;;;;;;4.32;2.15;;;;;;;12.40;71.17;100351.91;5024759;28;20385;-74
2022/06/22 00:32:58;;;;;;;6.30;2.53;;;;;;;12.37;71.44;100352.84;5041420;28;20100;-73
2022/06/22 00:35:50;;;;;;;4.00;1.98;;;;;;;12.37;71.83;100358.13;5044180;28;20033;-73
2022/06/22 00:38:27;;;;;;;3.22;1.90;;;;;;;12.35;71.89;100351.09;5040491;28;20404;-74
2022/06/22 00:40:58;;;;;;;4.75;2.08;;;;;;;12.33;71.27;100345.81;5041605;28;20033;-73
2022/06/22 00:43:28;;;;;;;5.38;2.17;;;;;;;12.33;70.73;100345.81;5037970;28;20132;-73
2022/06/22 00:45:55;;;;;;;3.78;1.48;;;;;;;12.34;70.96;100341.41;5043512;28;20091;-73
2022/06/22 00:48:29;;;;;;;4.47;1.80;;;;;;;12.36;70.56;100343.13;5044365;28;20024;-73
2022/06/22 00:51:04;;;;;;;5.38;2.22;;;;;;;12.34;70.83;100334.38;5038621;28;20476;-73
2022/06/22 00:53:34;;;;;;;3.90;1.75;;;;;;;12.31;70.87;100330.88;5042357;28;20048;-73
2022/06/22 00:56:09;;;;;;;5.95;2.25;;;;;;;12.27;70.99;100341.50;5045060;28;20076;-73
2022/06/22 00:58:39;;;;;;;6.38;2.35;;;;;;;12.26;70.89;100347.72;5043329;28;20381;-73
2022/06/22 01:01:18;;;;;;;6.40;1.80;;;;;;;12.19;71.30;100348.69;5041327;28;20037;-73
2022/06/22 01:04:00;;;;;;;4.55;2.10;;;;;;;12.14;71.55;100339.97;5040600;28;20132;-73
2022/06/22 01:06:50;;;;;;;4.03;2.30;;;;;;;11.97;73.77;100336.69;5039077;28;20731;-73
2022/06/22 01:09:27;;;;;;;6.03;2.20;;;;;;;11.86;73.39;100334.22;5039165;28;20120;-73
2022/06/22 01:12:16;;;;;;;5.60;2.33;;;;;;;11.89;72.91;100328.00;5041394;28;20037;-73
2022/06/22 01:15:15;;;;;;;5.10;2.00;;;;;;;11.96;72.52;100321.72;5043321;28;20580;-73
2022/06/22 01:18:04;;;;;;;3.92;2.20;;;;;;;12.03;72.43;100315.47;5037742;28;20049;-73
2022/06/22 01:20:53;;;;;;;5.00;2.15;;;;;;;11.96;71.73;100309.38;5037826;28;20147;-73
2022/06/22 01:23:43;;;;;;;4.63;2.13;;;;;;;11.92;71.79;100298.84;5037478;28;20045;-73
2022/06/22 01:26:24;;;;;;;4.13;1.92;;;;;;;11.89;72.45;100298.91;5038139;28;20404;-74
2022/06/22 01:29:01;;;;;;;4.25;2.00;;;;;;;11.84;72.98;100304.22;5041372;28;20068;-73
2022/06/22 01:31:27;;;;;;;5.72;2.08;;;;;;;11.82;72.34;100293.69;5039296;28;20037;-73
2022/06/22 01:33:54;;;;;;;4.40;1.70;;;;;;;11.79;72.50;100295.53;5039110;28;20037;-74
2022/06/22 01:36:31;;;;;;;3.38;2.00;;;;;;;11.77;72.38;100287.59;5043828;28;20455;-73
2022/06/22 01:38:57;;;;;;;4.10;2.08;;;;;;;11.74;71.75;100290.28;5039135;28;20050;-73
2022/06/22 01:41:30;;;;;;;4.15;2.22;;;;;;;11.76;72.22;100296.44;5041816;28;20083;-73
2022/06/22 01:44:05;;;;;;;2.97;1.60;;;;;;;11.78;71.47;100289.34;5044128;28;20041;-73
2022/06/22 01:46:46;;;;;;;7.65;2.40;;;;;;;11.75;71.47;100288.50;5042373;28;20075;-73
2022/06/22 01:49:25;;;;;;;6.00;2.55;;;;;;;11.73;71.55;100277.94;5037022;28;20041;-73
2022/06/22 01:51:58;;;;;;;4.43;1.98;;;;;;;11.72;71.39;100268.28;5040687;28;20037;-73
2022/06/22 01:54:29;;;;;;;3.63;1.98;;;;;;;11.68;71.47;100279.78;5037822;28;20033;-73
2022/06/22 01:57:06;;;;;;;5.28;2.50;;;;;;;11.64;71.65;100272.81;5042222;28;20094;-74
2022/06/22 01:59:45;;;;;;;4.05;2.38;;;;;;;11.62;71.67;100277.25;5037056;28;20034;-73
2022/06/22 02:02:22;;;;;;;4.72;2.20;;;;;;;11.59;71.56;100274.66;5040687;28;20060;-73
2022/06/22 02:04:53;;;;;;;5.65;2.40;;;;;;;11.59;71.30;100287.88;5040417;28;20068;-73
2022/06/22 02:07:46;;;;;;;5.20;2.38;;;;;;;11.56;72.01;100288.78;5041453;28;20132;-73
2022/06/22 02:10:24;;;;;;;5.70;2.28;;;;;;;11.54;71.76;100285.28;5042127;28;20403;-73
2022/06/22 02:13:00;;;;;;;8.00;2.30;;;;;;;11.51;72.32;100292.38;5019948;28;20123;-73
2022/06/22 02:15:44;;;;;;;5.68;2.40;;;;;;;11.51;73.36;100295.03;5043286;28;20032;-73
2022/06/22 02:18:16;;;;;;;4.57;2.20;;;;;;;11.50;72.78;100301.19;5039267;28;20073;-73
2022/06/22 02:20:42;;;;;;;4.60;2.25;;;;;;;11.49;72.29;100296.81;5036692;28;20095;-73
2022/06/22 02:23:15;;;;;;;8.25;2.63;;;;;;;11.54;72.41;100301.13;5041382;28;20033;-73
2022/06/22 02:25:54;;;;;;;4.30;1.98;;;;;;;11.57;72.96;100292.28;5038480;28;20033;-73
2022/06/22 02:28:19;;;;;;;6.55;2.80;;;;;;;11.57;72.17;100297.59;5038349;28;20389;-73
2022/06/22 02:30:45;;;;;;;5.60;2.60;;;;;;;11.58;72.78;100296.66;5041673;28;20052;-73
2022/06/22 02:33:11;;;;;;;5.25;2.30;;;;;;;11.67;72.37;100295.69;5041249;28;20029;-73
2022/06/22 02:35:39;;;;;;;8.95;2.75;;;;;;;11.77;72.53;100302.59;5040098;28;20187;-73
2022/06/22 02:38:09;;;;;;;7.75;2.80;;;;;;;11.82;72.59;100295.47;5035972;28;20029;-73
2022/06/22 02:44:29;;;;;;;4.75;2.42;;;;;;;11.87;72.96;100292.75;5041850;28;20124;-73
2022/06/22 02:46:17;;;;;;;4.95;2.20;;;;;;;11.99;73.36;100280.22;5019667;28;20053;-73
2022/06/22 02:48:46;;;;;;;4.93;2.75;;;;;;;12.06;73.60;100273.09;5041524;28;20033;-74
2022/06/22 02:51:29;;;;;;;9.13;3.20;;;;;;;12.12;73.50;100267.69;5038961;28;20484;-73
2022/06/22 02:53:58;;;;;;;6.60;3.05;;;;;;;12.15;72.89;100270.25;5037043;28;20511;-73
2022/06/22 02:56:31;;;;;;;5.00;2.67;;;;;;;12.11;72.89;100265.06;5039286;28;20037;-73
2022/06/22 02:58:56;;;;;;;6.53;3.25;;;;;;;12.04;73.29;100270.44;5041396;28;20056;-73
2022/06/22 03:01:26;;;;;;;7.65;4.80;;;;;;;12.05;73.70;100274.84;5040996;28;20404;-73
2022/06/22 03:03:58;;;;;;;6.80;4.20;;;;;;;12.00;73.63;100281.13;5039052;28;20151;-73
2022/06/22 03:06:33;;;;;;;7.97;4.10;;;;;;;11.87;74.21;100282.19;5036675;28;20408;-73
2022/06/22 03:09:01;;;;;;;6.32;3.28;;;;;;;11.89;74.46;100277.75;5040017;28;20037;-73
2022/06/22 03:11:28;;;;;;;6.18;2.88;;;;;;;11.96;73.40;100276.78;5042172;28;20036;-73
2022/06/22 03:14:02;;;;;;;6.45;2.92;;;;;;;11.95;73.23;100267.09;5039731;28;20037;-73
2022/06/22 03:16:33;;;;;;;7.15;3.30;;;;;;;11.91;73.71;100263.59;5040299;28;20038;-73
2022/06/22 03:19:04;;;;;;;8.18;2.60;;;;;;;11.89;74.95;100272.47;5042132;28;20041;-73
2022/06/22 03:21:31;;;;;;;4.82;2.75;;;;;;;11.95;74.50;100262.69;5039984;28;20041;-73
2022/06/22 03:24:14;;;;;;;5.03;2.80;;;;;;;12.03;74.66;100259.91;5040557;28;20079;-73
2022/06/22 03:26:48;;;;;;;4.97;3.33;;;;;;;12.10;74.83;100253.59;5037777;28;20515;-73
2022/06/22 03:29:24;;;;;;;5.97;2.90;;;;;;;12.14;75.48;100255.31;5039415;28;20083;-73
2022/06/22 03:31:57;;;;;;;5.85;3.22;;;;;;;12.13;75.36;100253.56;5038665;28;20131;-73
2022/06/22 03:34:28;;;;;;;4.40;2.90;;;;;;;12.21;74.61;100251.66;5040501;28;20052;-73
2022/06/22 03:37:18;;;;;;;5.72;2.95;;;;;;;12.34;74.39;100248.78;5035803;28;20065;-73
2022/06/22 03:39:48;;;;;;;4.50;2.90;;;;;;;12.42;73.80;100244.25;5035992;28;20124;-73
2022/06/22 03:42:21;;;;;;;5.68;3.92;;;;;;;12.48;73.92;100252.94;5040264;28;20429;-73
2022/06/22 03:44:54;;;;;;;8.23;4.20;;;;;;;12.57;73.36;100248.38;5042187;28;20100;-73
2022/06/22 03:47:36;;;;;;;4.75;3.70;;;;;;;12.63;73.29;100251.78;5030824;28;20037;-75
2022/06/22 03:50:11;;;;;;;5.70;3.40;;;;;;;12.71;72.68;100251.63;5033318;28;20065;-73
2022/06/22 03:52:44;;;;;;;4.93;2.85;;;;;;;12.71;72.53;100256.94;5040177;28;20057;-73
2022/06/22 03:55:18;;;;;;;5.85;3.38;;;;;;;12.78;72.01;100253.25;5038891;28;20084;-73
2022/06/22 03:57:49;;;;;;;6.63;3.55;;;;;;;12.82;71.89;100248.78;5040838;28;20072;-73
2022/06/22 04:00:16;;;;;;;5.95;3.42;;;;;;;12.86;72.29;100247.78;5041487;28;20033;-74
2022/06/22 04:02:43;;;;;;;7.40;3.90;;;;;;;12.97;71.97;100253.78;5038145;28;20060;-73
2022/06/22 04:05:25;;;;;;;8.57;4.10;;;;;;;13.00;71.41;100245.75;5040305;28;20119;-73
2022/06/22 04:07:52;;;;;;;;;;;;;;;13.04;71.94;100242.13;5042516;28;20066;-74
2022/06/22 04:10:44;;;;;;;7.18;4.45;;;;;;;13.15;71.32;100248.09;5038977;28;20012;-73
2022/06/22 04:13:16;;;;;;;9.43;5.03;;;;;;;13.25;70.71;100258.47;5034331;28;20116;-73
2022/06/22 04:15:47;;;;;;;;;;;;;;;13.29;71.58;100242.50;5040516;28;20048;-73
2022/06/22 04:18:19;;;;;;;4.72;3.25;;;;;;;13.39;70.77;100243.19;5042866;28;19916;-73
2022/06/22 04:20:54;;;;;;;5.07;3.08;;;;;;;13.49;70.21;100242.09;5043356;28;20111;-73
2022/06/22 04:23:29;;;;;;;7.28;3.40;;;;;;;13.59;69.74;100237.41;5042870;28;20553;-74
2022/06/22 04:25:59;;;;;;;9.93;6.22;;;;;;;13.73;69.92;100234.47;5040688;28;20037;-73
2022/06/22 04:28:29;;;;;;;8.80;5.78;;;;;;;13.87;69.16;100231.47;5043242;28;20043;-73
2022/06/22 04:30:57;;;;;;;9.07;5.95;;;;;;;13.98;68.42;100234.72;5044827;28;20498;-73
2022/06/22 04:33:30;;;;;;;7.60;5.18;;;;;;;14.00;68.55;100241.72;5038420;28;20120;-73
2022/06/22 04:36:10;;;;;;;6.32;4.50;;;;;;;14.06;68.59;100245.16;5041994;28;20032;-73
2022/06/22 04:38:54;;;;;;;7.50;3.65;;;;;;;14.22;67.91;100243.84;5039956;28;20038;-73
2022/06/22 04:41:29;;;;;;;8.93;5.22;;;;;;;14.28;67.85;100241.06;5020570;28;20370;-73
2022/06/22 04:44:01;;;;;;;7.05;5.15;;;;;;;14.42;67.53;100248.66;5044191;28;20068;-73
2022/06/22 04:46:34;;;;;;;10.45;5.95;;;;;;;14.57;66.81;100245.63;5041964;28;20131;-73
2022/06/22 04:49:14;;;;;;;8.35;3.58;;;;;;;14.62;66.64;100251.69;5043705;28;20044;-73
2022/06/22 04:51:44;;;;;;;6.15;3.25;;;;;;;14.72;66.74;100241.66;5037324;28;20029;-74
2022/06/22 04:54:23;;;;;;;9.02;4.57;;;;;;;14.84;66.53;100243.09;5043787;28;20041;-73
2022/06/22 04:56:51;;;;;;;7.38;5.00;;;;;;;15.01;66.29;100246.16;5039545;28;20112;-73
2022/06/22 04:59:18;;;;;;;4.90;3.00;;;;;;;15.05;65.82;100252.25;5040912;28;20797;-73
2022/06/22 05:01:56;;;;;;;10.07;4.10;;;;;;;15.20;65.53;100250.94;5042554;28;20033;-73
2022/06/22 05:04:32;;;;;;;9.23;3.42;;;;;;;15.35;64.55;100245.13;5033727;28;20124;-73
2022/06/22 05:07:23;;;;;;;7.88;3.17;;;;;;;15.36;64.28;100244.22;5042868;28;20037;-74
2022/06/22 05:09:55;;;;;;;5.68;3.00;;;;;;;15.42;64.09;100245.84;5041540;28;20049;-73
2022/06/22 05:12:24;;;;;;;7.47;2.80;;;;;;;15.54;64.33;100253.44;5044247;28;20163;-74
2022/06/22 05:14:53;;;;;;;8.35;5.35;;;;;;;15.72;63.97;100244.91;5042319;28;20083;-74
2022/06/22 05:17:28;;;;;;;6.22;4.50;;;;;;;15.89;63.45;100230.19;5042366;28;20037;-74
2022/06/22 05:20:30;;;;;;;11.35;5.57;;;;;;;16.00;62.66;100244.88;5037424;28;20033;-73
2022/06/22 05:23:00;;;;;;;7.78;6.40;;;;;;;16.19;62.15;100247.81;5040515;28;20033;-74
2022/06/22 05:25:27;;;;;;;7.05;5.20;;;;;;;16.36;61.79;100259.66;5041479;28;20083;-74
2022/06/22 05:28:07;;;;;;;9.00;5.00;;;;;;;16.50;60.69;100254.72;5044518;28;20043;-73
2022/06/22 05:30:58;;;;;;;7.55;5.03;;;;;;;16.62;60.76;100253.44;5042055;28;20492;-73
2022/06/22 05:33:25;;;;;;;7.13;4.60;;;;;;;16.75;60.54;100246.75;5041785;28;20037;-74
2022/06/22 05:36:01;;;;;;;7.65;4.85;;;;;;;16.91;59.54;100249.75;5041092;28;20127;-74
2022/06/22 05:38:28;;;;;;;6.75;5.20;;;;;;;17.06;59.39;100253.66;5042341;28;20567;-74
2022/06/22 05:40:54;;;;;;;5.97;4.72;;;;;;;17.18;58.88;100247.84;5043159;28;20037;-74
2022/06/22 05:43:21;;;;;;;9.20;5.28;;;;;;;17.38;57.92;100254.22;5040413;28;20486;-74
2022/06/22 05:45:52;;;;;;;6.80;5.20;;;;;;;17.56;57.38;100257.97;5037515;28;20135;-73
2022/06/22 05:48:21;;;;;;;6.43;3.92;;;;;;;17.70;56.51;100250.28;5039282;28;20432;-74
2022/06/22 05:51:01;;;;;;;10.38;6.35;;;;;;;17.87;55.74;100249.66;5043028;28;20123;-73
2022/06/22 05:53:45;;;;;;;8.57;5.55;;;;;;;18.00;56.15;100253.56;5039472;28;20037;-73
2022/06/22 05:56:22;;;;;;;9.70;6.78;;;;;;;18.23;55.61;100249.03;5038093;28;20542;-73
2022/06/22 05:59:00;;;;;;;6.72;4.80;;;;;;;18.42;54.48;100252.69;5040786;28;20051;-73
2022/06/22 06:01:52;;;;;;;5.97;3.78;;;;;;;18.56;54.28;100252.06;5038599;28;20044;-74
2022/06/22 06:04:20;;;;;;;8.38;2.53;;;;;;;18.68;54.21;100251.53;5038166;28;20473;-74
2022/06/22 06:06:47;;;;;;;4.72;2.17;;;;;;;18.83;54.00;100256.22;5041154;28;20045;-74
2022/06/22 06:09:19;;;;;;;5.82;3.70;;;;;;;18.97;53.47;100246.72;5043732;28;20040;-74
2022/06/22 06:11:49;;;;;;;;;;;;;;;19.04;52.27;100243.69;5041186;28;20488;-74
2022/06/22 06:14:39;;;;;;;6.38;2.20;;;;;;;19.19;52.31;100231.41;5041239;28;19971;-74
2022/06/22 06:17:16;;;;;;;4.22;1.90;;;;;;;19.29;52.12;100231.00;5040875;28;20045;-73
2022/06/22 06:19:48;;;;;;;4.25;1.92;;;;;;;19.46;52.21;100234.59;5037407;28;20037;-74
2022/06/22 06:22:13;;;;;;;6.60;4.28;;;;;;;19.64;51.89;100238.19;5040607;28;20041;-74
2022/06/22 06:27:39;;;;;;;4.78;2.05;;;;;;;19.91;50.61;100235.13;5042840;28;20525;-75
2022/06/22 06:30:20;;;;;;;3.85;1.58;;;;;;;20.01;50.13;100241.78;5040951;28;20045;-74
2022/06/22 06:33:16;;;;;;;5.35;2.05;;;;;;;20.13;49.60;100246.53;5039192;28;20038;-74
2022/06/22 06:35:48;;;;;;;6.95;2.25;;;;;;;20.21;49.07;100242.59;5040127;28;20443;-74
2022/06/22 06:38:36;;;;;;;5.97;2.97;;;;;;;20.39;48.31;100248.84;5040740;28;20033;-74
2022/06/22 06:41:04;;;;;;;7.10;2.50;;;;;;;20.52;48.45;100239.22;5038821;28;20040;-74
2022/06/22 06:43:41;;;;;;;5.10;2.05;;;;;;;20.65;47.92;100248.38;5038240;28;20102;-74
2022/06/22 06:46:27;;;;;;;6.22;2.17;;;;;;;20.73;46.64;100237.25;5040344;28;20040;-74
2022/06/22 06:49:11;;;;;;;6.15;3.78;;;;;;;20.85;46.92;100236.59;5036886;28;20693;-74
2022/06/22 06:51:41;;;;;;;5.20;2.60;;;;;;;20.99;46.75;100241.22;5035244;28;20037;-74
2022/06/22 06:54:21;;;;;;;4.00;2.38;;;;;;;21.12;46.11;100233.38;5041777;28;20076;-74
2022/06/22 06:56:52;;;;;;;4.07;1.88;;;;;;;21.24;46.55;100236.25;5035859;28;20041;-74
2022/06/22 06:59:24;;;;;;;4.38;2.40;;;;;;;21.37;46.13;100236.44;5041371;28;20449;-73
2022/06/22 07:01:50;;;;;;;3.80;1.75;;;;;;;21.49;45.76;100240.31;5041829;28;20037;-74
2022/06/22 07:04:24;;;;;;;4.72;1.70;;;;;;;21.43;44.67;100241.50;5033525;28;20083;-74
2022/06/22 07:06:52;;;;;;;5.28;2.20;;;;;;;21.43;45.21;100246.00;5041372;28;20040;-74
2022/06/22 07:09:28;;;;;;;4.35;2.60;;;;;;;21.60;44.27;100250.44;5041706;28;20488;-74
2022/06/22 07:12:00;;;;;;;4.28;2.17;;;;;;;21.77;44.58;100249.47;5036114;28;20042;-74
2022/06/22 07:14:30;;;;;;;4.45;2.30;;;;;;;21.92;44.00;100245.03;5040397;28;20044;-74
2022/06/22 07:17:00;;;;;;;5.22;2.50;;;;;;;22.01;43.73;100247.22;5042558;28;20052;-74
2022/06/22 07:19:31;;;;;;;4.90;2.88;;;;;;;22.10;43.20;100241.28;5030199;28;20037;-74
2022/06/22 07:22:00;;;;;;;3.90;2.10;;;;;;;22.25;43.16;100231.50;5039979;28;20037;-74
2022/06/22 07:24:44;;;;;;;6.10;2.30;;;;;;;22.38;42.14;100234.31;5042260;28;20113;-74
2022/06/22 07:27:21;;;;;;;4.45;1.73;;;;;;;22.50;41.50;100238.94;5039792;28;20041;-74
2022/06/22 07:30:01;;;;;;;3.65;2.20;;;;;;;22.53;40.75;100234.25;5036686;28;20427;-74
2022/06/22 07:32:42;;;;;;;8.43;2.97;;;;;;;22.36;40.95;100229.00;5038755;28;20045;-74
2022/06/22 07:35:24;;;;;;;11.80;3.88;;;;;;;22.53;41.58;100233.38;5039383;28;20041;-74
2022/06/22 07:38:05;;;;;;;4.32;2.55;;;;;;;22.68;40.27;100229.75;5037307;28;20037;-74
2022/06/22 07:40:32;;;;;;;6.10;1.70;;;;;;;22.82;40.16;100222.66;5039126;28;20030;-74
2022/06/22 07:42:59;;;;;;;3.30;1.20;;;;;;;22.85;40.21;100222.47;5041159;28;20025;-74
2022/06/22 07:45:27;;;;;;;3.70;1.55;;;;;;;22.88;39.62;100222.28;5040482;28;20087;-74
2022/06/22 07:47:58;;;;;;;7.80;1.60;;;;;;;23.05;39.78;100219.41;5039878;28;20037;-74
2022/06/22 07:50:32;;;;;;;6.25;1.63;;;;;;;22.95;38.55;100218.22;5041947;28;20043;-74
2022/06/22 07:53:06;;;;;;;5.25;1.50;;;;;;;22.94;38.62;100213.81;5041082;28;20474;-74
2022/06/22 07:55:45;;;;;;;3.13;1.30;;;;;;;23.08;39.63;100218.34;5042662;28;20037;-72
2022/06/22 07:58:19;;;;;;;2.83;1.27;;;;;;;23.18;38.26;100222.19;5043879;28;20033;-71
2022/06/22 08:00:49;;;;;;;5.72;1.40;;;;;;;23.29;38.56;100227.78;5045873;28;20582;-72
2022/06/22 08:03:30;;;;;;;2.80;1.35;;;;;;;23.42;38.38;100227.84;5042959;28;20115;-72
2022/06/22 08:05:59;;;;;;;6.67;1.40;;;;;;;23.54;38.12;100218.97;5035486;28;20492;-72
2022/06/22 08:08:31;;;;;;;2.15;0.90;;;;;;;23.63;37.25;100215.69;5044685;28;20090;-72
2022/06/22 08:11:03;;;;;;;4.00;1.17;;;;;;;23.63;37.62;100215.69;5044633;28;20036;-72
2022/06/22 08:13:40;;;;;;;9.30;4.03;;;;;;;23.87;37.83;100216.88;5039418;28;20428;-72
2022/06/22 08:16:10;;;;;;;6.75;2.60;;;;;;;24.01;37.06;100204.22;5043580;28;20044;-72
2022/06/22 08:18:36;;;;;;;11.10;4.88;;;;;;;24.09;37.36;100197.44;5045391;28;20033;-71
2022/06/22 08:21:02;;;;;;;9.50;3.92;;;;;;;24.19;36.86;100187.78;5042339;28;20091;-72
2022/06/22 08:23:33;;;;;;;13.68;6.80;;;;;;;24.35;37.08;100188.44;5044402;28;20135;-72
2022/06/22 08:26:03;;;;;;;9.73;5.20;;;;;;;24.51;37.16;100190.09;5044702;28;20037;-72
2022/06/22 08:28:32;;;;;;;4.90;1.27;;;;;;;24.65;36.05;100207.06;5042451;28;20388;-72
2022/06/22 08:30:58;;;;;;;3.17;1.30;;;;;;;24.43;36.19;100199.56;5044054;28;20502;-72
2022/06/22 08:33:31;;;;;;;4.93;1.50;;;;;;;24.54;35.47;100187.19;5043128;28;20038;-72
2022/06/22 08:36:03;;;;;;;5.93;1.75;;;;;;;24.59;35.52;100188.59;5042050;28;20052;-72
2022/06/22 08:38:39;;;;;;;8.93;1.40;;;;;;;24.67;34.31;100183.53;5039901;28;20041;-72
2022/06/22 08:41:33;;;;;;;3.70;1.30;;;;;;;24.76;33.93;100184.72;5041727;28;20119;-72
2022/06/22 08:44:32;;;;;;;1.70;0.80;;;;;;;24.83;33.55;100188.69;5044931;28;20048;-72
2022/06/22 08:47:30;;;;;;;5.70;1.20;;;;;;;24.94;33.14;100182.53;5040087;28;20083;-72
2022/06/22 08:50:33;;;;;;;4.45;1.60;;;;;;;24.96;33.27;100175.19;5043387;28;20123;-72
2022/06/22 08:53:10;;;;;;;8.10;3.75;;;;;;;25.18;34.51;100174.56;5042126;28;20060;-72
2022/06/22 08:55:47;;;;;;;5.60;2.42;;;;;;;25.32;33.93;100176.22;5044195;28;20029;-72
2022/06/22 08:58:18;;;;;;;6.13;3.80;;;;;;;25.54;34.01;100173.69;5039104;28;20037;-71
2022/06/22 09:01:17;;;;;;;4.63;2.08;;;;;;;25.67;32.97;100154.69;5043036;28;20134;-72
2022/06/22 09:03:51;;;;;;;3.63;1.58;;;;;;;25.85;33.66;100159.72;5044095;28;20041;-72
2022/06/22 09:06:40;;;;;;;7.13;2.63;;;;;;;26.05;33.22;100161.78;5039481;28;20107;-72
2022/06/22 09:09:31;;;;;;;7.80;3.10;;;;;;;26.28;33.17;100154.59;5039778;28;20037;-72
2022/06/22 09:12:24;;;;;;;4.13;1.92;;;;;;;26.45;33.08;100161.38;5039867;28;20053;-72
2022/06/22 09:15:25;;;;;;;5.43;2.40;;;;;;;26.65;32.18;100155.31;5041216;28;20042;-72
2022/06/22 09:17:59;;;;;;;7.60;2.30;;;;;;;26.66;31.36;100157.00;5039982;28;20432;-72
2022/06/22 09:20:36;;;;;;;7.53;2.00;;;;;;;26.67;31.38;100150.63;5034769;28;20116;-72
2022/06/22 09:23:26;;;;;;;2.88;1.35;;;;;;;26.62;31.16;100150.13;5043896;28;20075;-72
2022/06/22 09:26:24;;;;;;;7.32;1.75;;;;;;;26.64;31.16;100145.44;5043123;28;20036;-72
2022/06/22 09:28:58;;;;;;;3.80;2.13;;;;;;;26.64;30.66;100144.59;5037835;28;20492;-72
2022/06/22 09:31:55;;;;;;;5.35;2.85;;;;;;;26.87;31.22;100146.31;5041053;28;20040;-72
2022/06/22 09:34:43;;;;;;;4.22;2.50;;;;;;;27.15;30.46;100156.78;5039995;28;20037;-72
2022/06/22 09:37:30;;;;;;;5.18;2.90;;;;;;;27.40;30.38;100153.78;5044239;28;20037;-72
2022/06/22 09:40:02;;;;;;;4.05;2.40;;;;;;;27.53;30.47;100150.94;5043036;28;20041;-72
2022/06/22 09:43:00;;;;;;;4.50;2.10;;;;;;;27.52;28.58;100157.34;5041212;28;20044;-72
2022/06/22 09:45:40;;;;;;;3.50;1.50;;;;;;;27.09;29.30;100156.28;5041306;28;20038;-72
2022/06/22 09:48:23;;;;;;;4.65;1.90;;;;;;;27.24;29.04;100153.34;5038779;28;20511;-72
2022/06/22 09:51:01;;;;;;;3.88;1.10;;;;;;;27.29;29.42;100156.53;5036523;28;20524;-72
2022/06/22 09:53:55;;;;;;;9.20;8.05;;;;;;;27.36;28.93;100160.47;5041637;28;20475;-72
2022/06/22 09:56:33;;;;;;;6.88;3.28;;;;;;;27.59;28.88;100168.53;5042434;28;20127;-72
2022/06/22 09:59:23;;;;;;;4.00;1.70;;;;;;;27.74;28.07;100162.69;5020707;28;20041;-72
2022/06/22 10:02:12;;;;;;;3.05;1.60;;;;;;;27.86;28.05;100165.41;5038673;28;20506;-72
2022/06/22 10:05:12;;;;;;;3.97;1.70;;;;;;;28.03;27.70;100155.81;5038351;28;20033;-72
2022/06/22 10:08:01;;;;;;;4.10;1.20;;;;;;;27.95;26.77;100160.03;5042157;28;20488;-72
2022/06/22 10:10:47;;;;;;;3.38;1.55;;;;;;;28.13;27.88;100163.03;5042146;28;20036;-72
2022/06/22 10:13:42;;;;;;;2.15;1.00;;;;;;;28.28;26.83;100165.44;5040756;28;20041;-72
2022/06/22 10:16:37;;;;;;;4.97;2.10;;;;;;;28.45;26.73;100164.00;5042782;28;20454;-72
2022/06/22 10:19:30;;;;;;;3.13;1.52;;;;;;;28.50;26.19;100172.59;5036041;28;20124;-72
2022/06/22 10:22:13;;;;;;;2.90;1.38;;;;;;;28.59;26.33;100174.53;5036682;28;20038;-72
2022/06/22 10:24:59;;;;;;;4.03;1.58;;;;;;;28.73;26.13;100176.88;5039813;28;20404;-72
2022/06/22 10:27:38;;;;;;;4.75;0.93;;;;;;;28.88;25.35;100162.97;5040152;28;20084;-72
2022/06/22 10:30:16;;;;;;;4.05;1.95;;;;;;;28.92;25.99;100157.09;5039539;28;20033;-72
2022/06/22 10:33:04;;;;;;;5.00;3.05;;;;;;;29.39;25.89;100167.44;5035423;28;20048;-72
2022/06/22 10:35:58;;;;;;;2.00;1.10;;;;;;;29.52;25.36;100165.31;5035708;28;20426;-72
2022/06/22 10:39:17;;;;;;;14.35;5.28;;;;;;;29.75;25.22;100154.22;5036984;28;20172;-72
2022/06/22 10:45:08;;;;;;;5.10;2.22;;;;;;;29.97;24.20;100145.78;5036966;28;20033;-72
2022/06/22 10:48:05;;;;;;;5.30;2.55;;;;;;;30.15;24.21;100144.03;5040475;28;20103;-73
2022/06/22 10:50:33;;;;;;;6.50;2.90;;;;;;;30.33;24.42;100141.47;5042351;28;20025;-73
2022/06/22 10:53:27;;;;;;;2.92;1.40;;;;;;;30.38;23.55;100149.19;5037176;28;20044;-72
2022/06/22 10:55:59;;;;;;;3.47;1.05;;;;;;;30.31;23.97;100132.59;5038335;28;20040;-71
2022/06/22 10:58:37;;;;;;;3.88;1.00;;;;;;;30.09;23.97;100139.19;5040013;28;20048;-72
2022/06/22 11:01:38;;;;;;;3.20;1.10;;;;;;;29.71;24.12;100137.31;5037337;28;20041;-72
2022/06/22 11:04:34;;;;;;;4.32;2.40;;;;;;;29.97;24.51;100140.31;5038596;28;20609;-72
2022/06/22 11:07:11;;;;;;;2.35;1.10;;;;;;;30.04;23.20;100138.75;5042706;28;20040;-72
2022/06/22 11:09:45;;;;;;;2.75;0.80;;;;;;;29.94;23.77;100135.19;5041611;28;20037;-72
2022/06/22 11:12:41;;;;;;;2.45;1.00;;;;;;;29.70;24.18;100133.75;5034775;28;20079;-72
2022/06/22 11:15:49;;;;;;;3.03;1.35;;;;;;;29.72;23.50;100143.66;5037263;28;20427;-73
2022/06/22 11:18:31;;;;;;;4.38;2.22;;;;;;;29.74;24.06;100139.78;5041715;28;20033;-72
2022/06/22 11:21:24;;;;;;;2.58;1.30;;;;;;;29.88;23.32;100142.06;5039440;28;20083;-72
2022/06/22 11:24:23;;;;;;;2.20;1.00;;;;;;;29.74;24.00;100144.34;5037736;28;20075;-72
2022/06/22 11:33:40;;;;;;;3.05;1.30;;;;;;;29.55;24.26;100156.88;5010210;28;20056;-72
2022/06/22 11:36:31;;;;;;;3.55;1.00;;;;;;;29.81;23.43;100150.94;5042996;28;20067;-72
2022/06/22 11:38:57;;;;;;;;;;;;;;;29.93;23.93;100147.06;5046434;28;20132;-72
2022/06/22 11:42:07;;;;;;;2.60;1.00;;;;;;;30.27;23.91;100141.22;5042454;28;20100;-72
2022/06/22 11:45:49;;;;;;;2.75;1.30;;;;;;;30.75;23.31;100140.19;5045550;28;20825;-72
2022/06/22 11:48:05;;;;;;;5.72;1.42;;;;;;;30.98;21.79;100146.16;5039746;28;20042;-72
2022/06/22 11:51:08;;;;;;;4.80;1.30;;;;;;;31.36;21.43;100134.22;5042338;28;20488;-72
2022/06/22 11:54:11;;;;;;;4.95;1.75;;;;;;;31.59;20.89;100134.63;5046294;28;20127;-72
2022/06/22 11:56:55;;;;;;;3.75;1.80;;;;;;;31.71;21.17;100138.00;5040349;28;20079;-72
2022/06/22 11:59:48;;;;;;;4.72;2.25;;;;;;;32.19;20.11;100128.53;5040851;28;20503;-72
2022/06/22 12:02:41;;;;;;;2.95;1.85;;;;;;;32.82;20.21;100126.56;5041156;28;20124;-72
2022/06/22 12:05:28;;;;;;;2.50;1.35;;;;;;;33.37;19.53;100117.94;5042573;28;20042;-72
2022/06/22 12:08:24;;;;;;;5.40;1.70;;;;;;;33.77;19.57;100105.34;5042073;28;20034;-72
2022/06/22 12:11:00;;;;;;;4.82;1.92;;;;;;;34.05;20.09;100109.47;5044074;28;20488;-72
2022/06/22 12:13:31;;;;;;;2.67;1.55;;;;;;;34.35;18.83;100106.22;5040329;28;20025;-72
2022/06/22 12:16:24;;;;;;;5.65;1.73;;;;;;;34.32;18.90;100092.88;5043737;28;20090;-72
2022/06/22 12:19:15;;;;;;;2.72;1.20;;;;;;;34.20;18.42;100095.13;5043689;28;20033;-72
2022/06/22 12:21:57;;;;;;;3.45;1.42;;;;;;;33.43;18.45;100098.09;5043815;28;20060;-72
2022/06/22 12:25:13;;;;;;;3.90;1.08;;;;;;;33.35;19.30;100095.34;5042189;28;20034;-72
2022/06/22 12:27:42;;;;;;;2.30;1.60;;;;;;;33.89;18.44;100081.25;5021603;28;20048;-72
2022/06/22 12:30:32;;;;;;;3.35;1.48;;;;;;;34.39;18.13;100085.66;5045009;28;20091;-72
2022/06/22 12:33:22;;;;;;;3.92;2.92;;;;;;;35.00;17.86;100081.34;5042777;28;20048;-72
2022/06/22 12:35:59;;;;;;;4.82;1.60;;;;;;;35.19;18.13;100080.09;5048845;28;20049;-72